Borger, Texas
Current Conditions -  °F | °C
As of 3:51 PM on Friday 28 Nov 2014 (Local Time) from KBGD Reporting Station
Clear Clear  
Wind Chill: 83°   Ceiling: Unl
Heat Index: 83°   Visibility: 10mi
Dew Point: 10°   Wind: 18mph
Humidity: 6%   Direction: 250°WSW
Pressure: 29.83"   Gusts: 26mph
Location:  35.67°N, 101.39°W
Report Text: KBGD 282151Z AUTO 25016G23KT 10SM CLR 28/M12 A2983 RMK AO2 PK WND 24026/2059 SLP073 T02831122
Loading
Personal Weather Stations






























Interactive Weather Map New forecast layout! Learn more

10-Day Weather Forecast

Advertisements
Track Severe Weather on mobile